createdAt,value
2022-08-25T00:00:11.511Z,101763.63
2022-08-25T00:02:38.170Z,101758.28
2022-08-25T00:05:05.488Z,101760.97
2022-08-25T00:07:33.379Z,101762.00
2022-08-25T00:10:00.380Z,101758.50
2022-08-25T00:12:27.019Z,101755.19
2022-08-25T00:14:53.650Z,101752.91
2022-08-25T00:17:20.244Z,101749.59
2022-08-25T00:19:46.865Z,101750.63
2022-08-25T00:22:13.502Z,101748.56
2022-08-25T00:24:40.166Z,101748.19
2022-08-25T00:27:06.891Z,101740.97
2022-08-25T00:29:34.286Z,101740.75
2022-08-25T00:32:01.125Z,101741.16
2022-08-25T00:34:36.997Z,101750.44
2022-08-25T00:37:07.198Z,101743.41
2022-08-25T00:39:33.902Z,101746.94
2022-08-25T00:42:00.503Z,101745.09
2022-08-25T00:44:29.678Z,101745.28
2022-08-25T00:46:58.632Z,101745.88
2022-08-25T00:49:36.512Z,101738.28
2022-08-25T00:52:05.368Z,101743.63
2022-08-25T00:54:39.392Z,101744.44
2022-08-25T00:57:07.430Z,101736.41
2022-08-25T00:59:34.791Z,101739.91
2022-08-25T01:02:02.567Z,101738.28
2022-08-25T01:04:29.434Z,101742.59
2022-08-25T01:06:57.144Z,101736.41
2022-08-25T01:09:23.801Z,101733.09
2022-08-25T01:11:50.439Z,101734.75
2022-08-25T01:14:19.591Z,101726.91
2022-08-25T01:16:46.372Z,101739.28
2022-08-25T01:19:17.653Z,101733.91
2022-08-25T01:21:50.372Z,101734.34
2022-08-25T01:24:29.736Z,101732.66
2022-08-25T01:26:56.338Z,101737.22
2022-08-25T01:29:25.280Z,101737.03
2022-08-25T01:31:58.016Z,101733.50
2022-08-25T01:34:27.203Z,101728.97
2022-08-25T01:36:54.838Z,101734.34
2022-08-25T01:39:22.449Z,101728.34
2022-08-25T01:41:51.401Z,101726.50
2022-08-25T01:44:19.281Z,101727.31
2022-08-25T01:46:46.009Z,101730.63
2022-08-25T01:49:12.652Z,101725.25
2022-08-25T01:51:52.913Z,101726.50
2022-08-25T01:54:19.881Z,101721.13
2022-08-25T01:56:46.522Z,101721.34
2022-08-25T01:59:24.082Z,101726.03
2022-08-25T02:01:57.440Z,101724.41
2022-08-25T02:04:32.100Z,101721.13
2022-08-25T02:07:00.079Z,101719.25
2022-08-25T02:09:26.825Z,101719.25
2022-08-25T02:11:53.466Z,101722.94
2022-08-25T02:14:20.116Z,101720.47
2022-08-25T02:16:49.094Z,101714.09
2022-08-25T02:19:16.255Z,101713.28
2022-08-25T02:21:43.310Z,101715.75
2022-08-25T02:24:11.999Z,101714.72
2022-08-25T02:26:38.929Z,101711.00
2022-08-25T02:29:07.510Z,101709.75
2022-08-25T02:31:35.081Z,101708.09
2022-08-25T02:34:02.388Z,101708.50
2022-08-25T02:36:29.975Z,101706.25
2022-08-25T02:38:56.690Z,101705.63
2022-08-25T02:41:31.000Z,101700.91
2022-08-25T02:43:59.493Z,101700.91
2022-08-25T02:46:26.392Z,101694.72
2022-08-25T02:48:53.436Z,101691.19
2022-08-25T02:51:22.133Z,101695.75
2022-08-25T02:53:49.251Z,101691.19
2022-08-25T02:56:18.233Z,101693.06
2022-08-25T02:58:46.025Z,101695.09
2022-08-25T03:01:14.242Z,101695.94
2022-08-25T03:03:42.253Z,101688.50
2022-08-25T03:06:12.597Z,101686.44
2022-08-25T03:08:39.643Z,101683.56
2022-08-25T03:11:06.608Z,101699.84
2022-08-25T03:13:33.276Z,101696.34
2022-08-25T03:16:00.971Z,101697.16
2022-08-25T03:18:30.254Z,101699.66
2022-08-25T03:20:57.694Z,101689.13
2022-08-25T03:23:24.558Z,101696.75
2022-08-25T03:26:09.537Z,101694.28
2022-08-25T03:28:36.488Z,101693.00
2022-08-25T03:31:03.508Z,101703.13
2022-08-25T03:33:30.792Z,101695.91
2022-08-25T03:35:58.086Z,101696.53
2022-08-25T03:38:26.205Z,101696.75
2022-08-25T03:40:53.221Z,101700.44
2022-08-25T03:43:20.378Z,101695.31
2022-08-25T03:45:47.895Z,101685.59
2022-08-25T03:48:15.490Z,101689.31
2022-08-25T03:50:51.422Z,101693.00
2022-08-25T03:53:20.270Z,101690.94
2022-08-25T03:55:47.499Z,101695.69
2022-08-25T03:58:14.305Z,101686.00
2022-08-25T04:00:41.059Z,101682.50
2022-08-25T04:03:07.954Z,101684.97
2022-08-25T04:05:35.325Z,101685.59
2022-08-25T04:08:02.185Z,101697.34
2022-08-25T04:10:29.708Z,101694.66
2022-08-25T04:12:57.130Z,101695.28
2022-08-25T04:15:28.508Z,101688.03
2022-08-25T04:17:59.023Z,101696.06
2022-08-25T04:20:25.953Z,101685.97
2022-08-25T04:22:52.596Z,101692.16
2022-08-25T04:25:19.246Z,101687.44
2022-08-25T04:27:45.844Z,101689.91
2022-08-25T04:30:13.174Z,101700.41
2022-08-25T04:32:39.776Z,101694.25
2022-08-25T04:35:07.578Z,101696.72
2022-08-25T04:37:34.774Z,101701.06
2022-08-25T04:40:01.645Z,101697.53
2022-08-25T04:42:28.539Z,101700.84
2022-08-25T04:44:55.248Z,101703.53
2022-08-25T04:47:22.300Z,101696.31
2022-08-25T04:49:49.007Z,101699.19
2022-08-25T04:52:15.859Z,101709.09
2022-08-25T04:54:43.077Z,101713.81
2022-08-25T04:57:09.971Z,101715.47
2022-08-25T04:59:36.808Z,101712.16
2022-08-25T05:02:05.240Z,101711.13
2022-08-25T05:04:33.177Z,101706.78
2022-08-25T05:07:00.341Z,101714.84
2022-08-25T05:09:27.123Z,101711.13
2022-08-25T05:11:54.950Z,101714.03
2022-08-25T05:14:25.603Z,101712.34
2022-08-25T05:16:56.296Z,101717.09
2022-08-25T05:19:24.240Z,101717.28
2022-08-25T05:21:51.808Z,101721.81
2022-08-25T05:24:18.666Z,101724.72
2022-08-25T05:26:45.290Z,101716.03
2022-08-25T05:29:11.998Z,101728.38
2022-08-25T05:31:43.172Z,101725.72
2022-08-25T05:34:12.249Z,101717.69
2022-08-25T05:36:43.277Z,101724.06
2022-08-25T05:39:10.829Z,101724.91
2022-08-25T05:41:39.865Z,101718.91
2022-08-25T05:44:06.505Z,101721.38
2022-08-25T05:46:33.145Z,101717.25
2022-08-25T05:49:00.093Z,101715.81
2022-08-25T05:51:26.955Z,101709.41
2022-08-25T05:53:53.962Z,101722.81
2022-08-25T05:56:20.629Z,101711.28
2022-08-25T05:58:47.829Z,101714.78
2022-08-25T06:01:43.511Z,101711.06
2022-08-25T06:04:12.796Z,101713.97
2022-08-25T06:06:40.000Z,101718.09
2022-08-25T06:09:08.735Z,101714.56
2022-08-25T06:11:37.028Z,101718.09
2022-08-25T06:14:04.759Z,101712.50
2022-08-25T06:16:31.603Z,101716.03
2022-08-25T06:18:58.320Z,101724.25
2022-08-25T06:21:25.460Z,101716.66
2022-08-25T06:23:52.838Z,101716.41
2022-08-25T06:26:20.897Z,101721.78
2022-08-25T06:28:52.017Z,101718.47
2022-08-25T06:31:19.863Z,101715.16
2022-08-25T06:33:46.755Z,101715.16
2022-08-25T06:36:13.521Z,101715.81
2022-08-25T06:38:40.256Z,101720.97
2022-08-25T06:41:07.988Z,101718.69
2022-08-25T06:43:34.915Z,101721.16
2022-08-25T06:46:09.627Z,101722.00
2022-08-25T06:48:37.370Z,101720.97
2022-08-25T06:51:13.996Z,101727.13
2022-08-25T06:53:42.353Z,101720.97
2022-08-25T06:56:09.622Z,101722.00
2022-08-25T06:58:36.308Z,101721.78
2022-08-25T07:01:22.288Z,101719.09
2022-08-25T07:03:50.314Z,101717.25
2022-08-25T07:06:19.802Z,101721.38
2022-08-25T07:08:48.017Z,101728.81
2022-08-25T07:11:16.685Z,101726.31
2022-08-25T07:13:44.790Z,101727.13
2022-08-25T07:16:11.592Z,101721.78
2022-08-25T07:18:38.507Z,101726.31
2022-08-25T07:21:05.411Z,101720.97
2022-08-25T07:23:36.075Z,101714.78
2022-08-25T07:26:38.814Z,101712.75
2022-08-25T07:29:14.940Z,101711.69
2022-08-25T07:31:41.818Z,101723.22
2022-08-25T07:34:27.622Z,101726.34
2022-08-25T07:36:55.689Z,101726.34
2022-08-25T07:39:22.757Z,101721.19
2022-08-25T07:44:36.093Z,101725.50
2022-08-25T07:47:04.894Z,101717.28
2022-08-25T07:49:36.012Z,101722.66
2022-08-25T07:52:06.994Z,101716.44
2022-08-25T07:54:38.069Z,101714.59
2022-08-25T07:57:08.860Z,101721.81
2022-08-25T07:59:40.242Z,101712.97
2022-08-25T08:02:18.081Z,101719.34
2022-08-25T08:04:51.949Z,101720.34
2022-08-25T08:07:25.793Z,101719.97
2022-08-25T08:10:42.177Z,101711.94
2022-08-25T08:12:58.466Z,101711.75
2022-08-25T08:15:25.221Z,101713.56
2022-08-25T08:17:56.356Z,101709.88
2022-08-25T08:20:25.189Z,101709.88
2022-08-25T08:22:52.195Z,101714.22
2022-08-25T08:25:21.579Z,101716.91
2022-08-25T08:27:54.997Z,101710.50
2022-08-25T08:30:22.293Z,101710.69
2022-08-25T08:33:09.245Z,101723.72
2022-08-25T08:35:37.136Z,101714.03
2022-08-25T08:38:05.451Z,101714.84
2022-08-25T08:41:23.186Z,101714.63
2022-08-25T08:43:56.696Z,101712.16
2022-08-25T08:46:25.977Z,101708.44
2022-08-25T08:49:01.488Z,101705.75
2022-08-25T08:51:32.670Z,101699.41
2022-08-25T08:54:15.149Z,101701.06
2022-08-25T08:56:47.977Z,101700.66
2022-08-25T08:59:28.863Z,101695.72
2022-08-25T09:02:00.407Z,101701.69
2022-08-25T09:04:58.794Z,101695.53
2022-08-25T09:07:47.280Z,101700.88
2022-08-25T09:10:18.184Z,101695.53
2022-08-25T09:12:55.466Z,101701.69
2022-08-25T09:15:59.324Z,101698.19
2022-08-25T09:18:51.017Z,101694.50
2022-08-25T09:21:31.342Z,101692.84
2022-08-25T09:24:22.793Z,101689.13
2022-08-25T09:27:19.261Z,101690.16
2022-08-25T09:30:10.063Z,101695.09
2022-08-25T09:32:48.994Z,101695.09
2022-08-25T09:35:32.098Z,101690.38
2022-08-25T09:38:07.905Z,101696.56
2022-08-25T09:40:40.258Z,101687.31
2022-08-25T09:43:28.937Z,101683.59
2022-08-25T09:46:20.494Z,101685.44
2022-08-25T09:48:56.441Z,101683.59
2022-08-25T09:51:42.341Z,101670.81
2022-08-25T09:54:12.708Z,101672.25
2022-08-25T09:57:01.931Z,101673.31
2022-08-25T09:59:34.834Z,101667.34
2022-08-25T10:02:21.016Z,101663.63
2022-08-25T10:04:47.769Z,101663.22
2022-08-25T10:07:35.716Z,101667.97
2022-08-25T10:10:07.641Z,101671.06
2022-08-25T10:12:42.612Z,101659.34
2022-08-25T10:15:34.232Z,101663.03
2022-08-25T10:18:21.251Z,101660.16
2022-08-25T10:21:07.837Z,101656.91
2022-08-25T10:23:36.981Z,101651.75
2022-08-25T10:26:10.691Z,101648.66
2022-08-25T10:28:50.738Z,101647.84
2022-08-25T10:31:34.947Z,101643.09
2022-08-25T10:34:15.639Z,101630.09
2022-08-25T10:37:32.689Z,101634.03
2022-08-25T10:40:32.500Z,101621.22
2022-08-25T10:43:07.580Z,101623.09
2022-08-25T10:46:15.009Z,101622.66
2022-08-25T10:48:52.630Z,101619.38
2022-08-25T10:51:43.808Z,101618.13
2022-08-25T10:54:19.362Z,101612.38
2022-08-25T10:57:39.630Z,101611.94
2022-08-25T11:00:13.414Z,101601.84
2022-08-25T11:03:21.315Z,101595.22
2022-08-25T11:06:00.108Z,101586.75
2022-08-25T11:08:36.877Z,101585.53
2022-08-25T11:11:06.134Z,101591.50
2022-08-25T11:13:47.907Z,101584.28
2022-08-25T11:16:19.914Z,101584.06
2022-08-25T11:18:52.116Z,101582.00
2022-08-25T11:21:24.159Z,101574.56
2022-08-25T11:23:59.930Z,101564.88
2022-08-25T11:26:36.629Z,101565.25
2022-08-25T11:29:12.905Z,101564.03
2022-08-25T11:31:53.588Z,101561.56
2022-08-25T11:34:21.613Z,101554.09
2022-08-25T11:36:57.631Z,101552.03
2022-08-25T11:40:05.014Z,101549.13
2022-08-25T11:42:43.264Z,101542.75
2022-08-25T11:45:16.239Z,101541.91
2022-08-25T11:48:27.671Z,101542.94
2022-08-25T11:50:58.320Z,101542.94
2022-08-25T11:53:28.962Z,101535.94
2022-08-25T11:56:05.567Z,101532.84
2022-08-25T11:58:32.229Z,101533.03
2022-08-25T12:01:03.984Z,101524.59
2022-08-25T12:03:36.636Z,101530.81
2022-08-25T12:06:23.383Z,101533.50
2022-08-25T12:09:00.648Z,101535.13
2022-08-25T12:11:42.275Z,101517.38
2022-08-25T12:14:28.371Z,101518.00
2022-08-25T12:16:55.227Z,101511.81
2022-08-25T12:19:28.726Z,101510.56
2022-08-25T12:22:03.493Z,101507.63
2022-08-25T12:24:47.850Z,101515.91
2022-08-25T12:27:39.422Z,101504.75
2022-08-25T12:30:16.067Z,101504.13
2022-08-25T12:33:11.989Z,101498.75
2022-08-25T12:35:59.190Z,101503.03
2022-08-25T12:38:50.839Z,101500.31
2022-08-25T12:41:24.593Z,101491.00
2022-08-25T12:43:53.237Z,101487.91
2022-08-25T12:46:19.861Z,101487.47
2022-08-25T12:48:57.267Z,101481.66
2022-08-25T12:51:48.525Z,101481.03
2022-08-25T12:54:19.092Z,101485.13
2022-08-25T12:56:57.800Z,101477.09
2022-08-25T12:59:38.305Z,101471.50
2022-08-25T13:02:16.873Z,101471.28
2022-08-25T13:04:46.758Z,101471.88
2022-08-25T13:07:36.263Z,101473.31
2022-08-25T13:10:09.052Z,101468.78
2022-08-25T13:13:05.189Z,101467.72
2022-08-25T13:15:37.329Z,101470.00
2022-08-25T13:18:29.725Z,101457.16
2022-08-25T13:21:19.287Z,101462.53
2022-08-25T13:23:49.921Z,101460.47
2022-08-25T13:26:48.006Z,101462.31
2022-08-25T13:29:20.189Z,101455.69
2022-08-25T13:31:51.621Z,101456.88
2022-08-25T13:34:23.093Z,101460.41
2022-08-25T13:37:29.773Z,101456.88
2022-08-25T13:40:29.513Z,101452.09
2022-08-25T13:43:10.601Z,101440.06
2022-08-25T13:45:46.181Z,101438.00
2022-08-25T13:48:21.034Z,101436.16
2022-08-25T13:50:52.128Z,101431.59
2022-08-25T13:53:25.359Z,101431.78
2022-08-25T13:55:56.975Z,101434.34
2022-08-25T13:58:45.192Z,101424.41
2022-08-25T14:01:23.624Z,101424.13
2022-08-25T14:04:51.503Z,101432.38
2022-08-25T14:07:19.424Z,101429.28
2022-08-25T14:09:52.125Z,101431.31
2022-08-25T14:12:44.790Z,101427.78
2022-08-25T14:15:17.782Z,101429.84
2022-08-25T14:20:23.779Z,101424.66
2022-08-25T14:22:55.853Z,101427.97
2022-08-25T14:25:26.730Z,101424.63
2022-08-25T14:28:06.709Z,101415.69
2022-08-25T14:30:36.209Z,101422.03
2022-08-25T14:33:04.008Z,101415.06
2022-08-25T14:35:31.389Z,101415.00
2022-08-25T14:37:58.274Z,101408.66
2022-08-25T14:40:24.915Z,101403.28
2022-08-25T14:45:18.823Z,101399.16
2022-08-25T14:47:49.827Z,101401.84
2022-08-25T14:50:20.132Z,101398.38
2022-08-25T14:52:48.295Z,101395.69
2022-08-25T14:55:31.590Z,101395.47
2022-08-25T14:57:59.572Z,101395.91
2022-08-25T15:00:26.884Z,101393.88
2022-08-25T15:02:54.883Z,101393.28
2022-08-25T15:05:24.732Z,101386.84
2022-08-25T15:08:12.218Z,101382.66
2022-08-25T15:10:39.930Z,101381.84
2022-08-25T15:13:07.177Z,101380.56
2022-08-25T15:15:38.334Z,101380.56
2022-08-25T15:18:05.657Z,101381.03
2022-08-25T15:20:32.942Z,101374.81
2022-08-25T15:22:59.834Z,101366.75
2022-08-25T15:25:26.877Z,101362.44
2022-08-25T15:27:54.342Z,101368.47
2022-08-25T15:30:21.545Z,101362.13
2022-08-25T15:32:57.759Z,101365.69
2022-08-25T15:35:29.046Z,101375.47
2022-08-25T15:37:55.934Z,101367.03
2022-08-25T15:40:23.151Z,101368.09
2022-08-25T15:42:49.814Z,101369.56
2022-08-25T15:45:16.660Z,101365.25
2022-08-25T15:47:44.839Z,101362.16
2022-08-25T15:50:17.703Z,101366.94
2022-08-25T15:52:46.152Z,101372.31
2022-08-25T15:55:13.766Z,101359.94
2022-08-25T15:57:40.391Z,101345.06
2022-08-25T16:00:13.664Z,101351.69
2022-08-25T16:02:43.554Z,101349.00
2022-08-25T16:05:12.377Z,101351.69
2022-08-25T16:07:40.493Z,101340.94
2022-08-25T16:10:07.726Z,101341.97
2022-08-25T16:12:34.530Z,101341.16
2022-08-25T16:15:01.783Z,101339.50
2022-08-25T16:17:28.397Z,101334.34
2022-08-25T16:19:55.016Z,101338.91
2022-08-25T16:22:21.630Z,101328.38
2022-08-25T16:24:49.145Z,101328.84
2022-08-25T16:27:16.251Z,101325.31
2022-08-25T16:29:44.124Z,101328.84
2022-08-25T16:32:13.421Z,101324.47
2022-08-25T16:34:41.456Z,101315.84
2022-08-25T16:37:08.665Z,101314.19
2022-08-25T16:39:35.950Z,101314.41
2022-08-25T16:42:06.580Z,101302.25
2022-08-25T16:44:34.371Z,101301.41
2022-08-25T16:47:01.514Z,101298.94
2022-08-25T16:49:28.269Z,101297.31
2022-08-25T16:51:57.693Z,101295.88
2022-08-25T16:55:00.845Z,101304.78
2022-08-25T16:57:27.458Z,101305.00
2022-08-25T16:59:54.055Z,101310.38
2022-08-25T17:02:21.666Z,101306.84
2022-08-25T17:04:48.438Z,101310.56
2022-08-25T17:07:15.708Z,101315.94
2022-08-25T17:09:50.451Z,101309.97
2022-08-25T17:12:17.660Z,101304.00
2022-08-25T17:14:44.237Z,101304.00
2022-08-25T17:17:11.264Z,101303.16
2022-08-25T17:19:38.030Z,101302.16
2022-08-25T17:22:07.096Z,101303.16
2022-08-25T17:24:34.334Z,101308.31
2022-08-25T17:27:02.066Z,101298.84
2022-08-25T17:29:29.021Z,101302.38
2022-08-25T17:31:55.605Z,101297.78
2022-08-25T17:34:23.159Z,101299.91
2022-08-25T17:36:50.608Z,101291.00
2022-08-25T17:39:18.463Z,101291.84
2022-08-25T17:41:45.384Z,101298.25
2022-08-25T17:44:13.089Z,101291.22
2022-08-25T17:46:46.980Z,101294.75
2022-08-25T17:49:14.976Z,101298.47
2022-08-25T17:51:42.395Z,101306.53
2022-08-25T17:54:09.097Z,101298.06
2022-08-25T17:56:35.834Z,101309.66
2022-08-25T17:59:02.464Z,101308.00
2022-08-25T18:01:32.218Z,101307.78
2022-08-25T18:04:00.123Z,101313.16
2022-08-25T18:06:31.554Z,101312.31
2022-08-25T18:08:59.958Z,101310.69
2022-08-25T18:11:27.604Z,101310.47
2022-08-25T18:13:55.297Z,101315.00
2022-08-25T18:16:23.221Z,101319.34
2022-08-25T18:18:50.199Z,101308.59
2022-08-25T18:21:20.457Z,101310.25
2022-08-25T18:23:47.822Z,101313.75
2022-08-25T18:26:15.533Z,101316.06
2022-08-25T18:28:43.941Z,101322.22
2022-08-25T18:31:12.255Z,101322.22
2022-08-25T18:33:42.138Z,101324.91
2022-08-25T18:36:09.730Z,101324.13
2022-08-25T18:38:58.134Z,101322.69
2022-08-25T18:41:25.646Z,101322.47
2022-08-25T18:43:53.062Z,101328.88
2022-08-25T18:46:19.841Z,101331.34
2022-08-25T18:48:52.644Z,101329.91
2022-08-25T18:51:22.985Z,101325.59
2022-08-25T18:53:51.178Z,101319.59
2022-08-25T18:56:18.775Z,101327.66
2022-08-25T18:58:46.770Z,101333.03
2022-08-25T19:01:15.497Z,101320.66
2022-08-25T19:03:43.117Z,101329.53
2022-08-25T19:06:10.049Z,101332.66
2022-08-25T19:08:39.497Z,101328.31
2022-08-25T19:11:09.790Z,101331.44
2022-08-25T19:13:36.925Z,101335.53
2022-08-25T19:16:13.805Z,101331.44
2022-08-25T19:18:44.517Z,101332.69
2022-08-25T19:21:11.658Z,101335.38
2022-08-25T19:23:39.046Z,101330.00
2022-08-25T19:26:08.118Z,101335.81
2022-08-25T19:28:41.046Z,101339.75
2022-08-25T19:31:12.710Z,101340.22
2022-08-25T19:33:44.982Z,101336.47
2022-08-25T19:36:12.553Z,101334.84
2022-08-25T19:38:39.426Z,101330.72
2022-08-25T19:41:10.582Z,101330.47
2022-08-25T19:43:55.371Z,101333.41
2022-08-25T19:46:23.285Z,101331.16
2022-08-25T19:48:50.461Z,101333.00
2022-08-25T19:51:19.163Z,101339.41
2022-08-25T19:53:54.035Z,101339.59
2022-08-25T19:56:21.053Z,101339.81
2022-08-25T19:58:47.877Z,101331.75
2022-08-25T20:01:18.068Z,101337.78
2022-08-25T20:03:45.116Z,101337.00
2022-08-25T20:06:11.925Z,101338.66
2022-08-25T20:08:42.889Z,101336.16
2022-08-25T20:11:09.583Z,101337.56
2022-08-25T20:13:36.213Z,101329.53
2022-08-25T20:16:03.833Z,101329.31
2022-08-25T20:18:32.644Z,101330.13
2022-08-25T20:21:00.473Z,101332.00
2022-08-25T20:23:46.023Z,101332.00
2022-08-25T20:26:12.694Z,101325.59
2022-08-25T20:28:42.113Z,101323.94
2022-08-25T20:31:09.175Z,101320.00
2022-08-25T20:33:36.105Z,101321.25
2022-08-25T20:36:04.810Z,101315.28
2022-08-25T20:38:32.083Z,101321.69
2022-08-25T20:41:00.733Z,101320.06
2022-08-25T20:43:29.587Z,101317.38
2022-08-25T20:46:00.730Z,101315.94
2022-08-25T20:48:27.948Z,101313.88
2022-08-25T20:50:58.001Z,101312.84
2022-08-25T20:53:25.683Z,101312.25
2022-08-25T20:55:52.350Z,101308.94
2022-08-25T20:58:18.974Z,101308.16
2022-08-25T21:00:46.026Z,101307.94
2022-08-25T21:03:12.705Z,101310.63
2022-08-25T21:05:40.929Z,101311.63
2022-08-25T21:08:08.356Z,101307.53
2022-08-25T21:10:35.187Z,101311.88
2022-08-25T21:13:01.816Z,101308.94
2022-08-25T21:15:28.604Z,101306.72
2022-08-25T21:17:55.867Z,101305.47
2022-08-25T21:20:26.421Z,101304.63
2022-08-25T21:22:53.430Z,101306.06
2022-08-25T21:25:20.606Z,101311.41
2022-08-25T21:27:48.097Z,101305.69
2022-08-25T21:30:16.030Z,101313.09
2022-08-25T21:32:53.201Z,101311.28
2022-08-25T21:35:22.422Z,101311.50
2022-08-25T21:37:53.075Z,101317.91
2022-08-25T21:40:22.034Z,101318.13
2022-08-25T21:42:49.038Z,101307.59
2022-08-25T21:45:15.796Z,101309.66
2022-08-25T21:47:42.724Z,101314.34
2022-08-25T21:50:12.996Z,101312.09
2022-08-25T21:52:39.594Z,101309.19
2022-08-25T21:55:15.767Z,101318.66
2022-08-25T21:57:43.197Z,101312.25
2022-08-25T22:00:14.497Z,101304.41
2022-08-25T22:02:43.929Z,101301.53
2022-08-25T22:05:11.614Z,101307.09
2022-08-25T22:07:42.089Z,101299.06
2022-08-25T22:10:15.907Z,101299.88
2022-08-25T22:12:47.457Z,101291.84
2022-08-25T22:15:15.636Z,101291.84
2022-08-25T22:17:42.350Z,101284.59
2022-08-25T22:20:09.822Z,101282.75
2022-08-25T22:22:36.440Z,101274.06
2022-08-25T22:25:03.676Z,101277.00
2022-08-25T22:27:31.697Z,101272.84
2022-08-25T22:29:58.709Z,101273.09
2022-08-25T22:32:25.592Z,101265.25
2022-08-25T22:34:52.707Z,101267.13
2022-08-25T22:37:19.539Z,101267.72
2022-08-25T22:39:46.646Z,101270.63
2022-08-25T22:42:13.987Z,101269.41
2022-08-25T22:44:42.423Z,101266.56
2022-08-25T22:47:09.618Z,101262.84
2022-08-25T22:49:39.346Z,101259.09
2022-08-25T22:52:07.155Z,101259.94
2022-08-25T22:54:36.814Z,101251.44
2022-08-25T22:57:06.655Z,101250.63
2022-08-25T22:59:34.003Z,101250.47
2022-08-25T23:02:00.740Z,101250.69
2022-08-25T23:04:27.447Z,101248.81
2022-08-25T23:06:54.216Z,101248.75
2022-08-25T23:09:21.494Z,101244.22
2022-08-25T23:11:48.933Z,101244.84
2022-08-25T23:14:18.506Z,101242.59
2022-08-25T23:16:45.293Z,101241.75
2022-08-25T23:19:13.716Z,101243.63
2022-08-25T23:22:00.620Z,101242.22
2022-08-25T23:24:30.326Z,101240.75
2022-08-25T23:26:59.130Z,101240.75
2022-08-25T23:29:25.872Z,101236.66
2022-08-25T23:31:53.728Z,101228.38
2022-08-25T23:34:23.016Z,101233.16
2022-08-25T23:36:49.699Z,101220.41
2022-08-25T23:39:16.536Z,101222.03
2022-08-25T23:41:43.358Z,101219.59
2022-08-25T23:44:11.785Z,101218.53
2022-08-25T23:46:44.674Z,101213.19
2022-08-25T23:49:11.587Z,101221.59
2022-08-25T23:51:38.573Z,101213.78
2022-08-25T23:54:09.642Z,101215.19
2022-08-25T23:56:42.269Z,101219.91
2022-08-25T23:59:13.073Z,101221.56
